createdAt,value
2018-07-28T00:01:51.353Z,8.97
2018-07-28T00:04:19.816Z,9.27
2018-07-28T00:06:47.738Z,9.20
2018-07-28T00:09:15.737Z,9.43
2018-07-28T00:11:43.660Z,9.77
2018-07-28T00:14:11.406Z,8.30
2018-07-28T00:16:39.303Z,9.33
2018-07-28T00:19:07.344Z,10.63
2018-07-28T00:21:35.835Z,12.47
2018-07-28T00:24:03.659Z,15.90
2018-07-28T00:26:31.566Z,10.87
2018-07-28T00:28:59.289Z,9.90
2018-07-28T00:31:27.706Z,8.03
2018-07-28T00:33:56.244Z,9.73
2018-07-28T00:36:24.116Z,8.80
2018-07-28T00:38:51.978Z,7.93
2018-07-28T00:41:19.930Z,7.50
2018-07-28T00:43:48.536Z,7.93
2018-07-28T00:46:16.428Z,8.00
2018-07-28T00:48:44.282Z,8.80
2018-07-28T00:51:12.239Z,8.40
2018-07-28T00:53:40.251Z,8.37
2018-07-28T00:56:08.532Z,7.90
2018-07-28T00:58:36.456Z,8.50
2018-07-28T01:01:04.369Z,8.77
2018-07-28T01:03:32.300Z,8.27
2018-07-28T01:06:00.804Z,7.67
2018-07-28T01:08:28.702Z,8.17
2018-07-28T01:10:56.452Z,8.77
2018-07-28T01:13:25.572Z,8.20
2018-07-28T01:15:54.204Z,9.40
2018-07-28T01:18:22.108Z,10.20
2018-07-28T01:20:51.247Z,9.63
2018-07-28T01:23:19.174Z,9.10
2018-07-28T01:25:46.883Z,8.00
2018-07-28T01:28:14.771Z,8.97
2018-07-28T01:30:43.073Z,8.07
2018-07-28T01:33:10.814Z,9.10
2018-07-28T01:35:38.747Z,8.33
2018-07-28T01:38:06.628Z,9.23
2018-07-28T01:40:34.614Z,9.27
2018-07-28T01:43:02.486Z,8.20
2018-07-28T01:45:30.441Z,7.93
2018-07-28T01:47:58.975Z,8.00
2018-07-28T01:50:27.525Z,8.20
2018-07-28T01:52:55.354Z,7.77
2018-07-28T01:55:23.265Z,7.97
2018-07-28T01:57:51.150Z,8.60
2018-07-28T02:00:18.889Z,7.87
2018-07-28T02:02:46.757Z,8.30
2018-07-28T02:05:14.706Z,8.27
2018-07-28T02:07:42.565Z,9.20
2018-07-28T02:10:10.582Z,9.37
2018-07-28T02:12:38.688Z,10.07
2018-07-28T02:15:07.569Z,9.10
2018-07-28T02:17:35.473Z,9.80
2018-07-28T02:20:04.384Z,10.73
2018-07-28T02:22:32.892Z,11.40
2018-07-28T02:25:00.827Z,10.90
2018-07-28T02:27:28.910Z,10.93
2018-07-28T02:29:57.297Z,11.03
2018-07-28T02:32:25.246Z,10.40
2018-07-28T02:34:53.925Z,9.80
2018-07-28T02:37:21.810Z,11.40
2018-07-28T02:39:49.721Z,9.20
2018-07-28T02:42:17.645Z,9.97
2018-07-28T02:44:45.652Z,9.90
2018-07-28T02:47:13.548Z,8.77
2018-07-28T02:49:42.021Z,8.70
2018-07-28T02:52:09.999Z,8.83
2018-07-28T02:54:37.947Z,10.17
2018-07-28T02:57:05.849Z,10.33
2018-07-28T02:59:33.710Z,8.77
2018-07-28T03:02:01.616Z,10.90
2018-07-28T03:04:29.385Z,9.27
2018-07-28T03:06:57.906Z,9.73
2018-07-28T03:09:26.151Z,11.10
2018-07-28T03:11:54.049Z,9.63
2018-07-28T03:14:21.945Z,10.00
2018-07-28T03:16:49.831Z,9.90
2018-07-28T03:19:18.246Z,10.57
2018-07-28T03:21:46.626Z,11.30
2018-07-28T03:24:15.271Z,11.20
2018-07-28T03:26:43.220Z,10.93
2018-07-28T03:29:11.149Z,10.33
2018-07-28T03:31:39.147Z,9.87
2018-07-28T03:34:07.141Z,11.13
2018-07-28T03:36:35.041Z,9.90
2018-07-28T03:39:03.376Z,10.07
2018-07-28T03:41:31.332Z,9.33
2018-07-28T03:43:59.215Z,11.27
2018-07-28T03:46:27.156Z,11.37
2018-07-28T03:48:55.157Z,9.40
2018-07-28T03:51:23.035Z,8.87
2018-07-28T03:53:50.979Z,10.00
2018-07-28T03:56:18.925Z,10.33
2018-07-28T03:58:46.875Z,8.63
2018-07-28T04:01:14.811Z,9.70
2018-07-28T04:03:43.349Z,9.50
2018-07-28T04:06:11.292Z,9.40
2018-07-28T04:08:39.010Z,12.20
2018-07-28T04:11:06.923Z,11.20
2018-07-28T04:13:35.395Z,12.20
2018-07-28T04:16:04.232Z,11.40
2018-07-28T04:18:33.376Z,10.50
2018-07-28T04:21:01.152Z,11.77
2018-07-28T04:23:28.877Z,11.87
2018-07-28T04:25:57.572Z,12.30
2018-07-28T04:28:26.073Z,11.50
2018-07-28T04:30:54.746Z,10.03
2018-07-28T04:33:22.804Z,11.23
2018-07-28T04:35:51.104Z,11.40
2018-07-28T04:38:18.975Z,9.60
2018-07-28T04:40:47.711Z,11.93
2018-07-28T04:43:15.839Z,12.23
2018-07-28T04:45:43.780Z,11.97
2018-07-28T04:48:12.289Z,11.20
2018-07-28T04:50:40.017Z,12.77
2018-07-28T04:53:08.185Z,13.33
2018-07-28T04:55:36.059Z,13.73
2018-07-28T04:58:03.935Z,14.23
2018-07-28T05:00:31.888Z,13.40
2018-07-28T05:03:00.412Z,12.40
2018-07-28T05:05:28.163Z,12.47
2018-07-28T05:07:56.077Z,12.10
2018-07-28T05:10:24.009Z,13.70
2018-07-28T05:12:51.928Z,11.77
2018-07-28T05:15:20.168Z,13.67
2018-07-28T05:17:48.643Z,12.10
2018-07-28T05:20:16.396Z,13.10
2018-07-28T05:22:44.280Z,13.90
2018-07-28T05:25:12.599Z,16.57
2018-07-28T05:27:40.504Z,16.70
2018-07-28T05:30:10.150Z,17.40
2018-07-28T05:32:38.188Z,14.80
2018-07-28T05:35:07.719Z,15.73
2018-07-28T05:37:35.684Z,14.90
2018-07-28T05:40:03.969Z,12.60
2018-07-28T05:42:32.242Z,12.50
2018-07-28T05:45:00.837Z,13.10
2018-07-28T05:47:28.775Z,11.77
2018-07-28T05:49:56.720Z,13.90
2018-07-28T05:52:24.656Z,11.27
2018-07-28T05:54:52.540Z,10.20
2018-07-28T05:57:20.511Z,9.90
2018-07-28T05:59:49.117Z,10.60
2018-07-28T06:02:17.010Z,10.47
2018-07-28T06:04:45.581Z,11.20
2018-07-28T06:07:13.491Z,11.80
2018-07-28T06:09:41.465Z,10.87
2018-07-28T06:12:10.677Z,10.40
2018-07-28T06:14:38.524Z,12.17
2018-07-28T06:17:06.523Z,11.30
2018-07-28T06:19:35.012Z,11.90
2018-07-28T06:22:04.057Z,10.50
2018-07-28T06:24:31.908Z,10.97
2018-07-28T06:26:59.651Z,11.57
2018-07-28T06:29:27.604Z,12.77
2018-07-28T06:31:55.682Z,11.93
2018-07-28T06:34:23.720Z,13.60
2018-07-28T06:36:51.593Z,12.97
2018-07-28T06:39:19.521Z,12.60
2018-07-28T06:41:48.053Z,12.57
2018-07-28T06:44:15.980Z,13.83
2018-07-28T06:46:44.487Z,14.53
2018-07-28T06:49:12.386Z,13.70
2018-07-28T06:51:40.937Z,13.53
2018-07-28T06:54:08.868Z,15.23
2018-07-28T06:56:36.807Z,12.80
2018-07-28T06:59:10.934Z,14.60
2018-07-28T07:01:39.208Z,14.17
2018-07-28T07:04:07.165Z,13.00
2018-07-28T07:06:35.477Z,14.70
2018-07-28T07:09:05.564Z,13.77
2018-07-28T07:11:33.861Z,13.80
2018-07-28T07:14:03.171Z,13.80
2018-07-28T07:16:31.467Z,13.77
2018-07-28T07:18:59.322Z,14.30
2018-07-28T07:21:27.087Z,14.10
2018-07-28T07:23:55.811Z,16.47
2018-07-28T07:26:23.802Z,15.07
2018-07-28T07:28:52.458Z,14.23
2018-07-28T07:31:20.340Z,13.47
2018-07-28T07:33:48.236Z,14.90
2018-07-28T07:36:21.977Z,16.13
2018-07-28T07:38:50.136Z,18.33
2018-07-28T07:41:17.999Z,16.83
2018-07-28T07:43:45.756Z,17.33
2018-07-28T07:46:13.532Z,17.47
2018-07-28T07:48:41.303Z,16.60
2018-07-28T07:51:09.094Z,17.77
2018-07-28T07:53:37.474Z,17.90
2018-07-28T07:56:07.072Z,18.70
2018-07-28T07:58:35.922Z,17.53
2018-07-28T08:01:04.235Z,18.10
2018-07-28T08:03:32.785Z,15.67
2018-07-28T08:06:00.542Z,17.00
2018-07-28T08:08:28.315Z,16.43
2018-07-28T08:10:56.256Z,18.67
2018-07-28T08:13:24.170Z,16.60
2018-07-28T08:15:52.377Z,16.73
2018-07-28T08:18:20.375Z,16.30
2018-07-28T08:20:48.342Z,15.63
2018-07-28T08:23:16.372Z,14.13
2018-07-28T08:25:45.635Z,14.20
2018-07-28T08:28:15.120Z,14.30
2018-07-28T08:30:45.117Z,14.60
2018-07-28T08:33:12.976Z,13.83
2018-07-28T08:35:40.800Z,12.90
2018-07-28T08:38:08.720Z,14.30
2018-07-28T08:40:36.626Z,13.40
2018-07-28T08:43:04.902Z,14.90
2018-07-28T08:45:32.831Z,14.07
2018-07-28T08:48:00.816Z,13.57
2018-07-28T08:50:30.039Z,13.60
2018-07-28T08:52:57.800Z,15.33
2018-07-28T08:55:25.695Z,13.20
2018-07-28T08:57:53.587Z,13.10
2018-07-28T09:00:21.494Z,12.10
2018-07-28T09:02:50.155Z,12.70
2018-07-28T09:05:18.039Z,11.93
2018-07-28T09:07:46.888Z,11.17
2018-07-28T09:10:14.823Z,11.13
2018-07-28T09:12:42.931Z,10.87
2018-07-28T09:15:11.448Z,10.83
2018-07-28T09:17:39.477Z,11.17
2018-07-28T09:20:08.321Z,12.10
2018-07-28T09:22:36.845Z,12.67
2018-07-28T09:25:06.342Z,11.93
2018-07-28T09:27:34.132Z,11.00
2018-07-28T09:30:02.115Z,11.57
2018-07-28T09:32:30.878Z,11.77
2018-07-28T09:34:58.775Z,12.07
2018-07-28T09:37:26.692Z,13.50
2018-07-28T09:39:55.296Z,12.67
2018-07-28T09:42:23.479Z,11.43
2018-07-28T09:44:51.452Z,10.33
2018-07-28T09:47:20.408Z,10.60
2018-07-28T09:49:48.308Z,10.30
2018-07-28T09:52:16.216Z,10.47
2018-07-28T09:54:44.086Z,9.67
2018-07-28T09:57:12.006Z,9.70
2018-07-28T09:59:40.469Z,10.10
2018-07-28T10:02:08.325Z,9.73
2018-07-28T10:04:36.899Z,9.67
2018-07-28T10:07:04.677Z,7.83
2018-07-28T10:09:33.175Z,8.47
2018-07-28T10:12:01.033Z,7.80
2018-07-28T10:14:28.898Z,6.60
2018-07-28T10:16:57.220Z,6.50
2018-07-28T10:19:25.779Z,6.47
2018-07-28T10:21:53.762Z,7.20
2018-07-28T10:24:21.642Z,7.10
2018-07-28T10:26:50.207Z,7.60
2018-07-28T10:29:18.094Z,8.47
2018-07-28T10:31:46.003Z,7.70
2018-07-28T10:34:13.832Z,8.13
2018-07-28T10:36:41.819Z,8.13
2018-07-28T10:39:11.995Z,8.93
2018-07-28T10:41:39.848Z,8.07
2018-07-28T10:44:07.997Z,8.10
2018-07-28T10:46:36.295Z,8.70
2018-07-28T10:49:05.033Z,8.90
2018-07-28T10:51:33.011Z,8.23
2018-07-28T10:54:00.898Z,8.30
2018-07-28T10:56:28.835Z,8.60
2018-07-28T10:58:56.738Z,8.70
2018-07-28T11:01:24.458Z,8.40
2018-07-28T11:03:52.479Z,8.30
2018-07-28T11:06:20.407Z,8.47
2018-07-28T11:08:48.303Z,7.83
2018-07-28T11:11:16.199Z,7.13
2018-07-28T11:13:44.082Z,5.23
2018-07-28T11:16:12.071Z,6.53
2018-07-28T11:18:39.979Z,6.50
2018-07-28T11:21:08.472Z,6.50
2018-07-28T11:23:47.682Z,5.70
2018-07-28T11:26:18.662Z,6.10
2018-07-28T11:28:47.119Z,5.60
2018-07-28T11:31:26.420Z,6.43
2018-07-28T11:34:06.094Z,6.00
2018-07-28T11:36:39.726Z,5.50
2018-07-28T11:39:18.797Z,5.43
2018-07-28T11:41:58.066Z,5.60
2018-07-28T11:44:31.515Z,5.50
2018-07-28T11:46:59.391Z,5.60
2018-07-28T11:49:27.880Z,5.40
2018-07-28T11:51:56.419Z,5.43
2018-07-28T11:54:24.969Z,5.37
2018-07-28T11:56:52.860Z,5.23
2018-07-28T11:59:20.772Z,5.77
2018-07-28T12:01:49.008Z,5.70
2018-07-28T12:04:17.020Z,5.30
2018-07-28T12:06:45.675Z,5.10
2018-07-28T12:09:13.630Z,4.87
2018-07-28T12:11:41.892Z,5.13
2018-07-28T12:14:10.250Z,5.30
2018-07-28T12:16:38.460Z,4.83
2018-07-28T12:19:06.393Z,4.87
2018-07-28T12:21:34.305Z,5.27
2018-07-28T12:24:02.377Z,4.80
2018-07-28T12:26:30.196Z,4.70
2018-07-28T12:28:58.070Z,5.23
2018-07-28T12:31:25.951Z,4.73
2018-07-28T12:33:53.836Z,5.40
2018-07-28T12:36:21.681Z,4.10
2018-07-28T12:38:49.558Z,4.53
2018-07-28T12:41:17.420Z,4.40
2018-07-28T12:43:46.032Z,4.73
2018-07-28T12:46:14.053Z,4.83
2018-07-28T12:48:41.954Z,4.63
2018-07-28T12:51:09.969Z,5.40
2018-07-28T12:53:37.835Z,5.30
2018-07-28T12:56:05.836Z,4.30
2018-07-28T12:58:33.745Z,5.20
2018-07-28T13:01:01.501Z,5.00
2018-07-28T13:03:29.259Z,5.00
2018-07-28T13:05:57.350Z,5.17
2018-07-28T13:08:25.874Z,5.63
2018-07-28T13:10:53.786Z,5.90
2018-07-28T13:13:21.650Z,5.90
2018-07-28T13:15:49.824Z,6.20
2018-07-28T13:18:17.588Z,6.17
2018-07-28T13:20:45.332Z,6.67
2018-07-28T13:23:13.193Z,5.67
2018-07-28T13:25:41.105Z,6.40
2018-07-28T13:28:09.700Z,6.07
2018-07-28T13:30:37.712Z,6.27
2018-07-28T13:33:05.465Z,5.90
2018-07-28T13:35:33.435Z,5.67
2018-07-28T13:38:02.538Z,5.30
2018-07-28T13:40:30.427Z,5.97
2018-07-28T13:42:58.356Z,7.47
2018-07-28T13:45:27.087Z,7.13
2018-07-28T13:47:54.811Z,6.73
2018-07-28T13:50:22.658Z,7.70
2018-07-28T13:52:50.576Z,6.60
2018-07-28T13:55:18.460Z,6.10
2018-07-28T13:57:47.224Z,5.93
2018-07-28T14:00:15.232Z,6.47
2018-07-28T14:02:44.032Z,6.20
2018-07-28T14:05:11.961Z,6.60
2018-07-28T14:07:40.062Z,6.70
2018-07-28T14:10:08.615Z,6.10
2018-07-28T14:12:36.496Z,5.87
2018-07-28T14:15:06.060Z,5.67
2018-07-28T14:17:33.909Z,5.93
2018-07-28T14:20:01.841Z,7.37
2018-07-28T14:22:30.276Z,6.87
2018-07-28T14:24:58.230Z,6.20
2018-07-28T14:27:26.860Z,5.90
2018-07-28T14:29:54.771Z,5.57
2018-07-28T14:32:23.723Z,4.70
2018-07-28T14:34:51.638Z,5.33
2018-07-28T14:37:22.688Z,5.30
2018-07-28T14:39:51.201Z,5.10
2018-07-28T14:42:19.104Z,5.70
2018-07-28T14:44:47.083Z,5.57
2018-07-28T14:47:14.954Z,5.10
2018-07-28T14:49:42.755Z,4.73
2018-07-28T14:52:10.631Z,6.17
2018-07-28T14:54:39.312Z,4.73
2018-07-28T14:57:07.223Z,5.10
2018-07-28T14:59:35.173Z,4.60
2018-07-28T15:02:03.108Z,5.20
2018-07-28T15:04:31.008Z,4.97
2018-07-28T15:06:58.719Z,5.67
2018-07-28T15:09:26.446Z,4.70
2018-07-28T15:11:54.313Z,4.93
2018-07-28T15:14:22.170Z,4.40
2018-07-28T15:16:49.950Z,4.70
2018-07-28T15:19:18.296Z,4.90
2018-07-28T15:21:46.181Z,4.77
2018-07-28T15:24:14.096Z,4.40
2018-07-28T15:26:41.992Z,4.90
2018-07-28T15:29:10.495Z,5.43
2018-07-28T15:31:38.695Z,4.50
2018-07-28T15:34:06.633Z,4.70
2018-07-28T15:36:34.542Z,4.50
2018-07-28T15:39:02.608Z,4.07
2018-07-28T15:41:30.341Z,5.43
2018-07-28T15:43:58.232Z,3.57
2018-07-28T15:46:26.069Z,3.87
2018-07-28T15:48:53.965Z,3.90
2018-07-28T15:51:22.000Z,4.00
2018-07-28T15:53:49.858Z,4.00
2018-07-28T15:56:17.754Z,3.90
2018-07-28T15:58:45.584Z,3.63
2018-07-28T16:01:13.594Z,3.43
2018-07-28T16:03:41.333Z,4.17
2018-07-28T16:06:09.247Z,3.90
2018-07-28T16:08:37.656Z,3.93
2018-07-28T16:11:05.765Z,4.17
2018-07-28T16:13:33.719Z,3.63
2018-07-28T16:16:01.696Z,3.40
2018-07-28T16:18:29.617Z,3.10
2018-07-28T16:20:58.135Z,3.37
2018-07-28T16:23:26.012Z,3.97
2018-07-28T16:25:53.895Z,3.27
2018-07-28T16:28:21.713Z,3.40
2018-07-28T16:30:49.597Z,3.37
2018-07-28T16:33:17.458Z,3.53
2018-07-28T16:35:45.363Z,3.60
2018-07-28T16:38:13.257Z,3.60
2018-07-28T16:40:41.121Z,3.03
2018-07-28T16:43:09.157Z,3.57
2018-07-28T16:45:36.986Z,3.40
2018-07-28T16:48:05.037Z,3.50
2018-07-28T16:50:33.536Z,3.60
2018-07-28T16:53:01.982Z,3.83
2018-07-28T16:55:29.886Z,3.67
2018-07-28T16:57:57.783Z,3.43
2018-07-28T17:00:25.663Z,4.10
2018-07-28T17:02:53.513Z,3.67
2018-07-28T17:05:21.377Z,3.80
2018-07-28T17:07:49.366Z,3.80
2018-07-28T17:10:17.244Z,4.80
2018-07-28T17:12:45.287Z,4.37
2018-07-28T17:15:13.182Z,4.17
2018-07-28T17:17:42.333Z,3.83
2018-07-28T17:20:10.312Z,3.77
2018-07-28T17:22:38.279Z,4.00
2018-07-28T17:25:06.174Z,4.60
2018-07-28T17:27:34.475Z,4.07
2018-07-28T17:30:02.338Z,4.40
2018-07-28T17:32:30.363Z,5.20
2018-07-28T17:34:58.527Z,4.50
2018-07-28T17:37:26.562Z,5.20
2018-07-28T17:39:55.041Z,4.77
2018-07-28T17:42:22.825Z,5.23
2018-07-28T17:44:50.922Z,5.27
2018-07-28T17:47:18.831Z,5.33
2018-07-28T17:49:46.782Z,5.80
2018-07-28T17:52:14.668Z,5.37
2018-07-28T17:54:42.510Z,5.00
2018-07-28T17:57:10.462Z,5.00
2018-07-28T17:59:38.586Z,5.90
2018-07-28T18:02:07.485Z,6.03
2018-07-28T18:04:35.286Z,5.50
2018-07-28T18:07:03.222Z,5.97
2018-07-28T18:09:30.970Z,5.63
2018-07-28T18:11:59.944Z,6.10
2018-07-28T18:14:27.803Z,6.33
2018-07-28T18:16:55.716Z,6.00
2018-07-28T18:19:23.808Z,6.93
2018-07-28T18:21:51.654Z,6.70
2018-07-28T18:24:19.603Z,5.80
2018-07-28T18:26:47.477Z,7.17
2018-07-28T18:29:15.983Z,6.40
2018-07-28T18:31:43.841Z,8.03
2018-07-28T18:34:12.051Z,7.30
2018-07-28T18:36:40.513Z,7.10
2018-07-28T18:39:10.000Z,7.33
2018-07-28T18:41:37.768Z,6.93
2018-07-28T18:44:05.680Z,7.17
2018-07-28T18:46:33.876Z,6.93
2018-07-28T18:49:01.736Z,7.10
2018-07-28T18:51:29.639Z,6.70
2018-07-28T18:53:57.860Z,7.57
2018-07-28T18:56:25.812Z,7.83
2018-07-28T18:58:53.720Z,7.30
2018-07-28T19:01:21.734Z,7.50
2018-07-28T19:03:49.622Z,7.27
2018-07-28T19:06:18.264Z,7.10
2018-07-28T19:08:50.679Z,7.40
2018-07-28T19:11:18.590Z,7.80
2018-07-28T19:13:52.179Z,7.90
2018-07-28T19:16:20.819Z,8.07
2018-07-28T19:18:54.329Z,7.90
2018-07-28T19:21:22.189Z,8.30
2018-07-28T19:23:55.506Z,7.90
2018-07-28T19:26:23.367Z,8.27
2018-07-28T19:28:56.881Z,7.13
2018-07-28T19:31:24.828Z,7.47
2018-07-28T19:33:53.682Z,7.50
2018-07-28T19:36:28.004Z,8.40
2018-07-28T19:38:55.882Z,9.13
2018-07-28T19:41:23.748Z,8.90
2018-07-28T19:43:52.396Z,9.30
2018-07-28T19:46:21.066Z,8.50
2018-07-28T19:48:48.971Z,8.70
2018-07-28T19:51:17.066Z,8.67
2018-07-28T19:53:45.129Z,8.90
2018-07-28T19:56:13.036Z,8.80
2018-07-28T19:58:40.962Z,8.87
2018-07-28T20:01:09.073Z,7.73
2018-07-28T20:03:38.269Z,8.07
2018-07-28T20:06:06.023Z,10.07
2018-07-28T20:08:34.087Z,9.00
2018-07-28T20:11:01.861Z,9.10
2018-07-28T20:13:29.743Z,9.17
2018-07-28T20:15:57.505Z,10.50
2018-07-28T20:18:25.403Z,9.67
2018-07-28T20:20:53.282Z,8.23
2018-07-28T20:23:21.160Z,15.50
2018-07-28T20:25:49.057Z,16.60
2018-07-28T20:28:16.996Z,13.60
2018-07-28T20:30:45.934Z,9.90
2018-07-28T20:33:13.712Z,9.70
2018-07-28T20:35:41.638Z,8.93
2018-07-28T20:38:09.562Z,9.43
2018-07-28T20:40:37.473Z,8.70
2018-07-28T20:43:05.520Z,9.60
2018-07-28T20:45:33.608Z,9.47
2018-07-28T20:48:01.480Z,10.77
2018-07-28T20:50:29.250Z,10.00
2018-07-28T20:52:57.159Z,9.63
2018-07-28T20:55:25.031Z,9.50
2018-07-28T20:57:52.938Z,10.80
2018-07-28T21:00:20.703Z,10.90
2018-07-28T21:02:48.555Z,10.00
2018-07-28T21:05:16.449Z,11.50
2018-07-28T21:07:44.384Z,11.50
2018-07-28T21:10:12.303Z,10.40
2018-07-28T21:12:40.045Z,10.00
2018-07-28T21:15:07.937Z,9.10
2018-07-28T21:17:35.835Z,10.23
2018-07-28T21:20:04.349Z,9.80
2018-07-28T21:22:32.311Z,10.77
2018-07-28T21:25:00.263Z,10.77
2018-07-28T21:27:28.207Z,10.80
2018-07-28T21:29:56.159Z,9.50
2018-07-28T21:32:24.353Z,11.20
2018-07-28T21:34:52.726Z,10.03
2018-07-28T21:37:20.746Z,10.80
2018-07-28T21:39:49.370Z,10.90
2018-07-28T21:42:17.825Z,11.37
2018-07-28T21:44:45.715Z,10.83
2018-07-28T21:47:13.435Z,11.30
2018-07-28T21:49:41.643Z,11.10
2018-07-28T21:52:09.397Z,9.90
2018-07-28T21:54:38.538Z,10.83
2018-07-28T21:57:07.039Z,11.87
2018-07-28T21:59:35.554Z,10.10
2018-07-28T22:02:03.545Z,11.20
2018-07-28T22:04:33.662Z,11.00
2018-07-28T22:07:01.586Z,12.10
2018-07-28T22:09:29.462Z,10.93
2018-07-28T22:11:57.785Z,12.00
2018-07-28T22:14:25.686Z,11.87
2018-07-28T22:16:54.487Z,12.10
2018-07-28T22:19:22.408Z,11.03
2018-07-28T22:21:50.739Z,11.93
2018-07-28T22:24:18.757Z,11.60
2018-07-28T22:26:46.508Z,10.63
2018-07-28T22:29:14.305Z,12.17
2018-07-28T22:31:42.224Z,12.17
2018-07-28T22:34:11.403Z,12.47
2018-07-28T22:36:39.365Z,11.67
2018-07-28T22:39:09.836Z,12.07
2018-07-28T22:41:38.575Z,11.87
2018-07-28T22:44:06.559Z,13.13
2018-07-28T22:46:34.337Z,12.87
2018-07-28T22:49:02.262Z,11.67
2018-07-28T22:51:30.172Z,12.30
2018-07-28T22:53:58.117Z,13.07
2018-07-28T22:56:25.997Z,12.07
2018-07-28T22:58:54.410Z,12.33
2018-07-28T23:01:22.416Z,11.27
2018-07-28T23:03:50.268Z,11.07
2018-07-28T23:06:18.212Z,11.90
2018-07-28T23:08:52.542Z,10.60
2018-07-28T23:11:21.324Z,12.40
2018-07-28T23:13:49.402Z,11.63
2018-07-28T23:16:17.286Z,12.03
2018-07-28T23:18:45.947Z,12.13
2018-07-28T23:21:15.134Z,11.50
2018-07-28T23:23:43.076Z,12.43
2018-07-28T23:26:11.001Z,11.07
2018-07-28T23:28:38.752Z,10.97
2018-07-28T23:31:06.506Z,12.10
2018-07-28T23:33:34.309Z,11.77
2018-07-28T23:36:02.237Z,12.33
2018-07-28T23:38:30.146Z,13.77
2018-07-28T23:40:58.565Z,12.90
2018-07-28T23:43:26.897Z,12.80
2018-07-28T23:45:54.763Z,12.20
2018-07-28T23:48:22.623Z,12.00
2018-07-28T23:50:50.359Z,11.50
2018-07-28T23:53:18.855Z,12.40
2018-07-28T23:55:47.348Z,12.50
2018-07-28T23:58:15.120Z,12.60
